Time;durP1;ratioP1;P1;durP2;ratioP2;P2;SDS_P1;SDS_P2;PMS_P1;PMS_P2;Temp;Humidity;BMP_temperature;BMP_pressure;BME280_temperature;BME280_humidity;BME280_pressure;Samples;Min_cycle;Max_cycle;Signal;HPM_P1;HPM_P2
2022/05/31 00:00:35;;;;;;;4.93;2.80;;;;;;;13.48;47.73;101321.91;4972234;28;123779;-69
2022/05/31 00:03:06;;;;;;;5.95;2.80;;;;;;;13.49;47.55;101322.81;4977461;28;124867;-69
2022/05/31 00:05:33;;;;;;;6.18;2.92;;;;;;;13.50;47.59;101321.84;4972098;28;114505;-69
2022/05/31 00:08:00;;;;;;;4.22;2.72;;;;;;;13.50;47.46;101316.53;4969494;28;114462;-68
2022/05/31 00:10:28;;;;;;;3.67;2.75;;;;;;;13.51;47.70;101320.94;4985228;28;122962;-69
2022/05/31 00:12:55;;;;;;;5.18;2.90;;;;;;;13.51;47.56;101326.25;4972587;28;123628;-68
2022/05/31 00:15:22;;;;;;;5.65;3.05;;;;;;;13.51;47.60;101315.59;4973570;28;113947;-68
2022/05/31 00:17:49;;;;;;;4.53;2.78;;;;;;;13.50;47.53;101313.88;4972422;28;114130;-68
2022/05/31 00:20:16;;;;;;;3.75;2.72;;;;;;;13.48;47.69;101313.09;4971940;28;123766;-68
2022/05/31 00:22:44;;;;;;;6.05;3.55;;;;;;;13.45;47.49;101306.13;4972550;28;123051;-68
2022/05/31 00:25:12;;;;;;;4.13;2.75;;;;;;;13.43;47.76;101303.53;4980186;28;115060;-69
2022/05/31 00:27:40;;;;;;;4.60;3.00;;;;;;;13.40;47.82;101308.16;4992439;28;114107;-69
2022/05/31 00:30:08;;;;;;;5.05;2.70;;;;;;;13.37;47.74;101317.16;4972829;28;124518;-68
2022/05/31 00:32:38;;;;;;;6.28;3.15;;;;;;;13.35;47.85;101315.47;4976241;28;124978;-68
2022/05/31 00:35:10;;;;;;;5.10;3.03;;;;;;;13.31;47.80;101309.44;4975436;28;113589;-68
2022/05/31 00:37:38;;;;;;;5.13;2.83;;;;;;;13.30;48.03;101312.13;4987202;28;114299;-68
2022/05/31 00:40:06;;;;;;;6.50;3.00;;;;;;;13.28;47.73;101314.91;4972062;28;125898;-68
2022/05/31 00:42:53;;;;;;;4.45;2.90;;;;;;;13.24;47.96;101307.97;4985673;28;124165;-68
2022/05/31 00:45:26;;;;;;;5.13;2.70;;;;;;;13.22;47.88;101310.75;4982312;28;113403;-68
2022/05/31 00:47:53;;;;;;;5.07;3.08;;;;;;;13.19;47.83;101304.72;4977157;28;114184;-68
2022/05/31 00:50:45;;;;;;;5.28;2.97;;;;;;;13.17;48.17;101309.25;4987303;28;123891;-68
2022/05/31 00:53:17;;;;;;;4.00;2.63;;;;;;;13.15;47.96;101313.78;4981867;28;123414;-67
2022/05/31 00:55:50;;;;;;;5.22;3.10;;;;;;;13.13;48.06;101315.63;4995195;28;113600;-68
2022/05/31 00:58:23;;;;;;;5.90;2.97;;;;;;;13.10;48.29;101310.47;4988800;28;113689;-68
2022/05/31 01:00:50;;;;;;;6.10;2.90;;;;;;;13.07;48.02;101310.59;4972219;28;123799;-69
2022/05/31 01:03:22;;;;;;;5.03;3.00;;;;;;;13.03;48.09;101310.78;4975052;28;124622;-68
2022/05/31 01:05:49;;;;;;;6.18;3.20;;;;;;;13.00;48.30;101316.22;4974376;28;114003;-69
2022/05/31 01:08:16;;;;;;;4.18;3.20;;;;;;;12.97;48.09;101316.34;4982562;28;114307;-69
2022/05/31 01:11:04;;;;;;;5.68;3.33;;;;;;;12.93;48.23;101320.09;4980368;28;124209;-69
2022/05/31 01:13:55;;;;;;;4.38;2.92;;;;;;;12.89;48.34;101313.22;4972069;28;124210;-69
2022/05/31 01:16:54;;;;;;;4.32;2.63;;;;;;;12.86;48.37;101313.34;4974633;28;115075;-68
2022/05/31 01:19:59;;;;;;;7.23;3.40;;;;;;;12.83;48.19;101313.50;4981186;28;114676;-68
2022/05/31 01:22:56;;;;;;;4.90;2.85;;;;;;;12.77;48.39;101305.81;4978820;28;124220;-68
2022/05/31 01:25:37;;;;;;;5.80;3.20;;;;;;;12.74;48.33;101303.31;4976231;28;124524;-68
2022/05/31 01:28:25;;;;;;;6.07;3.10;;;;;;;12.70;48.48;101304.38;4972704;28;115001;-68
2022/05/31 01:31:07;;;;;;;5.78;2.97;;;;;;;12.65;48.46;101300.13;4973555;28;114322;-68
2022/05/31 01:34:08;;;;;;;5.45;2.60;;;;;;;12.61;48.60;101303.88;4982357;28;123592;-68
2022/05/31 01:36:46;;;;;;;4.22;2.85;;;;;;;12.58;48.55;101308.44;4976038;28;123499;-68
2022/05/31 01:39:28;;;;;;;5.32;3.03;;;;;;;12.54;48.40;101307.72;4991323;28;113500;-68
2022/05/31 01:42:30;;;;;;;4.78;2.83;;;;;;;12.50;48.35;101306.16;4978870;28;114634;-69
2022/05/31 01:45:05;;;;;;;4.63;3.10;;;;;;;12.48;48.40;101300.03;4966465;28;123768;-68
2022/05/31 01:47:34;;;;;;;5.07;3.00;;;;;;;12.46;48.40;101293.94;4978011;28;123936;-68
2022/05/31 01:50:03;;;;;;;5.38;2.90;;;;;;;12.44;48.49;101301.97;4977706;28;114547;-67
2022/05/31 01:52:31;;;;;;;4.72;2.90;;;;;;;12.42;48.51;101303.00;4976479;28;113769;-69
2022/05/31 01:54:59;;;;;;;6.47;3.42;;;;;;;12.39;48.49;101297.81;4981853;28;123855;-69
2022/05/31 01:57:28;;;;;;;4.43;2.75;;;;;;;12.36;49.00;101290.00;4980784;28;123759;-69
2022/05/31 02:00:06;;;;;;;5.22;3.20;;;;;;;12.34;49.28;101286.53;4985865;28;113591;-69
2022/05/31 02:02:41;;;;;;;6.00;3.15;;;;;;;12.32;48.59;101285.72;4980205;28;115031;-69
2022/05/31 02:05:08;;;;;;;5.93;2.90;;;;;;;12.30;49.00;101292.91;4994642;28;123691;-69
2022/05/31 02:07:36;;;;;;;6.57;3.13;;;;;;;12.26;48.86;101290.41;4985337;28;122932;-68
2022/05/31 02:10:06;;;;;;;5.10;2.88;;;;;;;12.24;49.38;101288.72;4984878;28;113441;-69
2022/05/31 02:12:40;;;;;;;4.93;3.50;;;;;;;12.20;49.16;101282.69;4981489;28;113763;-69
2022/05/31 02:15:26;;;;;;;5.40;3.40;;;;;;;12.18;48.93;101284.56;4979037;28;123790;-69
2022/05/31 02:18:12;;;;;;;6.03;3.40;;;;;;;12.15;49.23;101292.69;4981510;28;124679;-69
2022/05/31 02:21:14;;;;;;;8.20;3.20;;;;;;;12.11;49.06;101299.06;4987026;28;114602;-69
2022/05/31 02:23:49;;;;;;;5.57;3.10;;;;;;;12.11;49.11;101299.06;4981171;28;114162;-69
2022/05/31 02:26:16;;;;;;;4.85;3.15;;;;;;;12.10;49.40;101299.13;4985758;28;124618;-69
2022/05/31 02:28:43;;;;;;;4.90;3.30;;;;;;;12.08;49.34;101304.50;4981514;28;123834;-69
2022/05/31 02:31:10;;;;;;;4.75;3.10;;;;;;;12.07;49.50;101302.75;4994331;28;114271;-69
2022/05/31 02:33:39;;;;;;;6.13;3.25;;;;;;;12.06;49.36;101298.41;4974568;28;114363;-69
2022/05/31 02:36:06;;;;;;;6.20;3.15;;;;;;;12.05;49.69;101296.66;4975815;28;123657;-69
2022/05/31 02:38:33;;;;;;;6.20;3.20;;;;;;;12.05;49.60;101294.00;4975071;28;123873;-69
2022/05/31 02:41:01;;;;;;;6.65;3.33;;;;;;;12.04;49.44;101292.28;4983398;28;112968;-69
2022/05/31 02:43:29;;;;;;;5.70;3.38;;;;;;;12.04;49.58;101281.66;4977526;28;114167;-69
2022/05/31 02:45:59;;;;;;;4.45;2.92;;;;;;;12.02;49.99;101289.69;4978684;28;123211;-69
2022/05/31 02:48:26;;;;;;;5.85;3.35;;;;;;;12.02;49.89;101289.69;4978574;28;122830;-69
2022/05/31 02:50:53;;;;;;;6.55;3.65;;;;;;;12.02;49.71;101289.69;4977706;28;114501;-69
2022/05/31 02:53:20;;;;;;;4.82;3.13;;;;;;;12.03;49.63;101285.25;4977165;28;112928;-69
2022/05/31 02:55:48;;;;;;;5.20;3.35;;;;;;;12.01;50.07;101281.78;4980749;28;123325;-69
2022/05/31 02:58:41;;;;;;;4.75;3.45;;;;;;;11.99;50.01;101279.19;4965111;28;123885;-69
2022/05/31 03:01:35;;;;;;;6.07;3.70;;;;;;;11.97;50.32;101280.22;4979231;28;114753;-69
2022/05/31 03:04:21;;;;;;;6.43;3.65;;;;;;;11.96;50.31;101279.34;4977874;28;114538;-69
2022/05/31 03:07:10;;;;;;;6.63;3.28;;;;;;;11.98;50.41;101276.59;4973989;28;123876;-69
2022/05/31 03:09:58;;;;;;;6.50;3.50;;;;;;;11.99;50.31;101273.91;4974064;28;122866;-69
2022/05/31 03:12:27;;;;;;;8.50;3.92;;;;;;;12.00;50.52;101277.44;4970427;28;115178;-69
2022/05/31 03:15:11;;;;;;;7.30;3.88;;;;;;;12.01;50.69;101276.50;4974043;28;114314;-69
2022/05/31 03:17:51;;;;;;;5.35;3.38;;;;;;;12.00;50.70;101280.09;4978054;28;123824;-69
2022/05/31 03:20:23;;;;;;;7.40;3.78;;;;;;;12.00;50.45;101280.09;4983348;28;122855;-69
2022/05/31 03:22:59;;;;;;;5.45;3.55;;;;;;;12.00;50.74;101269.47;4978062;28;114532;-69
2022/05/31 03:25:27;;;;;;;6.28;3.63;;;;;;;12.00;50.71;101269.47;4972594;28;113835;-69
2022/05/31 03:27:58;;;;;;;5.78;3.70;;;;;;;12.02;50.92;101264.94;4992609;28;122819;-69
2022/05/31 03:30:25;;;;;;;5.50;3.50;;;;;;;12.03;50.91;101274.63;4979214;28;123631;-69
2022/05/31 03:32:54;;;;;;;6.93;3.85;;;;;;;12.05;50.98;101267.44;4975551;28;114445;-69
2022/05/31 03:35:22;;;;;;;6.30;3.95;;;;;;;12.07;51.20;101270.91;4982328;28;114547;-69
2022/05/31 03:37:49;;;;;;;5.93;4.20;;;;;;;12.09;51.39;101271.69;4990935;28;123385;-69
2022/05/31 03:43:19;;;;;;;6.55;4.30;;;;;;;12.16;51.21;101267.84;4983128;28;113816;-69
2022/05/31 03:46:11;;;;;;;5.80;3.85;;;;;;;12.19;51.65;101257.09;4987298;28;114100;-69
2022/05/31 03:48:52;;;;;;;6.38;3.60;;;;;;;12.23;51.27;101271.94;4976332;28;123231;-69
2022/05/31 03:51:19;;;;;;;7.95;3.78;;;;;;;12.25;51.66;101267.44;4977044;28;123609;-69
2022/05/31 03:53:49;;;;;;;7.70;4.22;;;;;;;12.30;51.71;101263.69;4981183;28;113518;-69
2022/05/31 03:56:23;;;;;;;7.53;4.40;;;;;;;12.35;51.75;101269.66;4984868;28;112282;-69
2022/05/31 03:58:51;;;;;;;7.18;3.95;;;;;;;12.40;51.54;101273.84;4987728;28;123609;-69
2022/05/31 04:01:19;;;;;;;7.45;4.30;;;;;;;12.44;51.68;101264.78;4984685;28;125531;-69
2022/05/31 04:03:48;;;;;;;6.55;4.10;;;;;;;12.49;51.60;101271.69;4977029;28;114403;-69
2022/05/31 04:06:15;;;;;;;7.32;4.28;;;;;;;12.52;51.55;101267.09;4978277;28;115024;-69
2022/05/31 04:08:43;;;;;;;8.52;4.13;;;;;;;12.57;51.60;101264.22;4979141;28;124392;-69
2022/05/31 04:11:11;;;;;;;6.28;4.45;;;;;;;12.59;51.69;101257.91;4976160;28;123216;-69
2022/05/31 04:13:38;;;;;;;6.78;4.32;;;;;;;12.60;51.87;101259.63;4993873;28;113708;-69
2022/05/31 04:16:38;;;;;;;7.25;3.90;;;;;;;12.62;51.52;101257.78;4986295;28;113740;-69
2022/05/31 04:19:05;;;;;;;8.90;4.45;;;;;;;12.65;51.84;101262.91;4980844;28;122351;-70
2022/05/31 04:21:32;;;;;;;8.40;4.68;;;;;;;12.70;51.90;101253.91;4977484;28;123102;-69
2022/05/31 04:24:08;;;;;;;8.40;4.40;;;;;;;12.73;51.93;101259.03;4976480;28;114871;-69
2022/05/31 04:26:46;;;;;;;6.80;4.50;;;;;;;12.76;51.89;101261.56;4982462;28;114314;-69
2022/05/31 04:29:39;;;;;;;8.23;4.50;;;;;;;12.79;52.29;101264.94;4973956;28;123438;-70
2022/05/31 04:32:07;;;;;;;7.90;4.45;;;;;;;12.83;51.70;101270.97;4984374;28;124710;-69
2022/05/31 04:34:40;;;;;;;8.73;4.72;;;;;;;12.85;51.83;101275.28;4979472;28;115036;-69
2022/05/31 04:37:08;;;;;;;9.40;4.43;;;;;;;12.89;51.98;101275.13;4985678;28;113060;-69
2022/05/31 04:39:53;;;;;;;12.02;4.63;;;;;;;12.94;51.75;101268.66;4982633;28;125302;-69
2022/05/31 04:42:44;;;;;;;8.00;4.45;;;;;;;12.97;51.84;101273.81;4973188;28;124227;-69
2022/05/31 04:45:26;;;;;;;8.93;4.60;;;;;;;13.03;51.86;101267.34;4992491;28;113361;-69
2022/05/31 04:47:53;;;;;;;7.60;4.70;;;;;;;13.05;51.89;101271.66;4999180;28;113477;-69
2022/05/31 04:50:20;;;;;;;7.05;4.80;;;;;;;13.06;51.87;101264.53;4979333;28;125329;-69
2022/05/31 04:52:47;;;;;;;8.13;4.78;;;;;;;13.12;51.94;101266.03;4990619;28;122973;-68
2022/05/31 04:55:15;;;;;;;7.70;4.40;;;;;;;13.14;51.86;101274.81;4982751;28;115324;-69
2022/05/31 04:57:48;;;;;;;6.38;4.47;;;;;;;13.19;51.79;101267.47;4990924;28;113153;-69
2022/05/31 05:00:15;;;;;;;7.72;4.47;;;;;;;13.23;51.94;101271.69;4985224;28;124208;-68
2022/05/31 05:03:01;;;;;;;7.70;4.97;;;;;;;13.27;52.07;101265.28;4994473;28;122265;-67
2022/05/31 05:05:33;;;;;;;8.60;4.90;;;;;;;13.30;52.08;101270.50;4978099;28;112998;-68
2022/05/31 05:08:11;;;;;;;9.90;4.72;;;;;;;13.34;51.63;101265.88;4984519;28;113885;-68
2022/05/31 05:10:46;;;;;;;8.57;5.10;;;;;;;13.35;52.14;101263.13;4978648;28;123628;-67
2022/05/31 05:13:31;;;;;;;9.68;5.40;;;;;;;13.35;51.89;101263.13;4997372;28;123062;-67
2022/05/31 05:16:33;;;;;;;8.27;4.95;;;;;;;13.33;52.03;101254.38;4983441;28;114113;-67
2022/05/31 05:19:00;;;;;;;7.95;5.00;;;;;;;13.35;52.34;101257.81;4999807;28;113975;-67
2022/05/31 05:21:29;;;;;;;9.52;5.43;;;;;;;13.37;52.34;101261.28;4979901;28;123738;-68
2022/05/31 05:23:56;;;;;;;11.38;5.22;;;;;;;13.40;52.30;101254.94;4979296;28;123276;-68
2022/05/31 05:26:31;;;;;;;13.95;5.43;;;;;;;13.44;52.29;101260.00;4975518;28;114170;-68
2022/05/31 05:32:08;;;;;;;9.20;5.13;;;;;;;13.53;52.35;101244.53;4981570;28;123189;-68
2022/05/31 05:34:37;;;;;;;10.23;5.50;;;;;;;13.58;52.67;101253.13;4979035;28;124891;-68
2022/05/31 05:37:16;;;;;;;9.25;5.00;;;;;;;13.64;52.33;101255.50;4996349;28;113705;-69
2022/05/31 05:39:45;;;;;;;8.77;5.20;;;;;;;13.71;52.45;101258.69;4990055;28;113470;-69
2022/05/31 05:42:41;;;;;;;12.88;5.28;;;;;;;13.77;52.23;101264.56;4977833;28;125236;-68
2022/05/31 05:45:26;;;;;;;12.50;5.82;;;;;;;13.83;52.32;101264.25;4986751;28;124906;-68
2022/05/31 05:47:53;;;;;;;7.70;4.85;;;;;;;13.88;52.32;101265.78;4976608;28;114507;-69
2022/05/31 05:50:28;;;;;;;7.65;5.03;;;;;;;13.93;52.18;101269.09;4973723;28;113557;-68
2022/05/31 05:53:09;;;;;;;10.32;5.60;;;;;;;13.96;52.08;101268.94;4979953;28;124245;-68
2022/05/31 05:55:59;;;;;;;9.35;5.50;;;;;;;13.98;52.22;101272.38;4981330;28;123445;-68
2022/05/31 05:58:45;;;;;;;7.47;4.90;;;;;;;14.03;52.22;101270.31;4987847;28;115152;-68
2022/05/31 06:01:48;;;;;;;8.50;5.50;;;;;;;14.07;52.22;101271.00;5000128;28;114588;-68
2022/05/31 06:05:03;;;;;;;11.20;5.63;;;;;;;14.11;52.15;101262.78;4985104;28;122217;-68
2022/05/31 06:07:44;;;;;;;8.70;5.68;;;;;;;14.15;52.09;101274.16;4984684;28;122057;-68
2022/05/31 06:10:18;;;;;;;9.52;5.53;;;;;;;14.19;52.04;101271.22;4984318;28;113077;-68
2022/05/31 06:12:51;;;;;;;8.35;4.97;;;;;;;14.21;52.11;101264.00;4978124;28;113627;-68
2022/05/31 06:15:22;;;;;;;9.57;5.57;;;;;;;14.24;52.00;101264.78;4994875;28;123607;-68
2022/05/31 06:17:53;;;;;;;10.30;5.72;;;;;;;14.24;51.92;101260.34;4983398;28;123061;-68
2022/05/31 06:20:21;;;;;;;7.82;5.65;;;;;;;14.25;52.02;101269.19;4992262;28;114722;-68
2022/05/31 06:22:49;;;;;;;10.65;6.20;;;;;;;14.29;51.95;101268.06;4974208;28;113011;-69
2022/05/31 06:25:23;;;;;;;8.30;5.35;;;;;;;14.30;52.12;101267.16;4958968;28;123186;-68
2022/05/31 06:28:09;;;;;;;8.60;5.13;;;;;;;14.32;52.21;101265.25;4977268;28;124264;-68
2022/05/31 06:30:37;;;;;;;13.35;5.78;;;;;;;14.32;52.22;101259.94;4979646;28;113795;-68
2022/05/31 06:33:05;;;;;;;9.57;6.13;;;;;;;14.35;51.98;101265.06;4995936;28;114109;-69
2022/05/31 06:35:32;;;;;;;13.20;6.18;;;;;;;14.36;52.25;101266.81;4996979;28;123086;-68
2022/05/31 06:38:02;;;;;;;9.13;6.30;;;;;;;14.37;52.44;101268.50;4980898;28;124099;-69
2022/05/31 06:40:31;;;;;;;10.00;5.65;;;;;;;14.40;52.49;101268.34;4980332;28;115021;-68
2022/05/31 06:43:15;;;;;;;8.00;5.65;;;;;;;14.42;52.17;101277.13;4994552;28;114476;-69
2022/05/31 06:46:05;;;;;;;10.73;5.80;;;;;;;14.44;52.53;101269.91;4976647;28;125169;-69
2022/05/31 06:48:53;;;;;;;9.23;5.75;;;;;;;14.46;52.63;101261.84;4989388;28;125173;-68
2022/05/31 06:58:01;;;;;;;11.95;5.70;;;;;;;14.49;52.73;101262.53;4972671;28;124291;-68
2022/05/31 07:00:32;;;;;;;11.05;5.90;;;;;;;14.53;52.95;101264.06;4969863;28;122879;-68
2022/05/31 07:02:59;;;;;;;11.65;5.90;;;;;;;14.59;52.91;101258.44;4971833;28;114456;-68
2022/05/31 07:05:33;;;;;;;10.73;5.95;;;;;;;14.66;53.01;101260.78;4952758;28;113812;-69
2022/05/31 07:08:07;;;;;;;8.95;5.90;;;;;;;14.72;53.02;101252.44;4988424;28;123102;-68
2022/05/31 07:10:52;;;;;;;10.13;6.15;;;;;;;14.78;52.71;101257.41;4971093;28;123753;-68
2022/05/31 07:13:43;;;;;;;8.20;5.85;;;;;;;14.85;52.78;101248.13;4955821;28;114143;-69
2022/05/31 07:16:34;;;;;;;9.15;5.25;;;;;;;14.91;52.74;101239.78;4973066;28;113939;-68
2022/05/31 07:19:21;;;;;;;11.32;5.43;;;;;;;14.99;52.86;101237.53;4973840;28;124791;-68
2022/05/31 07:21:48;;;;;;;9.88;5.43;;;;;;;15.06;52.60;101239.84;4972446;28;122783;-68
2022/05/31 07:24:17;;;;;;;6.85;5.00;;;;;;;15.13;52.72;101241.22;4990090;28;113300;-68
2022/05/31 07:27:07;;;;;;;11.40;5.00;;;;;;;15.20;52.62;101237.25;4974706;28;114587;-68
2022/05/31 07:29:34;;;;;;;9.07;5.00;;;;;;;15.28;52.56;101245.66;4975969;28;125630;-68
2022/05/31 07:32:03;;;;;;;10.80;5.30;;;;;;;15.37;52.58;101244.28;4974647;28;123405;-68
2022/05/31 07:34:50;;;;;;;8.30;5.20;;;;;;;15.45;52.53;101241.16;4996726;28;114675;-68
2022/05/31 07:37:19;;;;;;;8.43;5.53;;;;;;;15.53;52.36;101244.22;4978385;28;114630;-68
2022/05/31 07:39:48;;;;;;;10.10;5.85;;;;;;;15.59;52.31;101243.84;4992679;28;123967;-69
2022/05/31 07:42:16;;;;;;;8.10;5.93;;;;;;;15.67;52.44;101241.59;4963050;28;123656;-71
2022/05/31 07:44:46;;;;;;;9.15;5.78;;;;;;;15.75;52.31;101244.69;4963477;28;114057;-69
2022/05/31 07:47:13;;;;;;;7.88;5.15;;;;;;;15.83;52.40;101246.03;4972870;28;113352;-69
2022/05/31 07:49:40;;;;;;;8.10;5.82;;;;;;;15.91;52.47;101233.06;4992167;28;123680;-69
2022/05/31 07:52:25;;;;;;;7.55;5.18;;;;;;;16.04;52.32;101239.38;4979081;28;123347;-69
2022/05/31 07:55:13;;;;;;;8.13;5.40;;;;;;;16.15;52.20;101231.53;4969689;28;114724;-68
2022/05/31 08:01:33;;;;;;;8.15;4.53;;;;;;;16.45;51.85;101232.41;4986710;28;124532;-68
2022/05/31 08:04:08;;;;;;;8.90;4.65;;;;;;;16.57;51.73;101230.75;4978304;28;123440;-68
2022/05/31 08:06:36;;;;;;;7.85;4.47;;;;;;;16.69;51.36;101229.97;4989062;28;113246;-68
2022/05/31 08:09:04;;;;;;;6.55;4.40;;;;;;;16.79;51.43;101231.06;4991581;28;114585;-67
2022/05/31 08:11:33;;;;;;;6.35;4.38;;;;;;;16.92;51.25;101237.38;4987264;28;124135;-69
2022/05/31 08:14:01;;;;;;;8.13;4.78;;;;;;;17.05;51.17;101236.59;4985951;28;123658;-68
2022/05/31 08:16:29;;;;;;;7.32;4.57;;;;;;;17.17;50.71;101238.44;4981445;28;114263;-69
2022/05/31 08:18:57;;;;;;;7.05;4.13;;;;;;;17.34;50.96;101241.81;4999809;28;113065;-68
2022/05/31 08:21:30;;;;;;;9.20;4.30;;;;;;;17.56;50.72;101236.72;4999992;28;124611;-69
2022/05/31 08:24:23;;;;;;;8.75;4.40;;;;;;;17.80;50.69;101235.97;4992350;28;123878;-69
2022/05/31 08:27:10;;;;;;;8.10;4.40;;;;;;;18.06;50.37;101232.38;4974629;28;115769;-69
2022/05/31 08:29:38;;;;;;;6.97;4.32;;;;;;;18.26;50.24;101224.75;4975056;28;115242;-69
2022/05/31 08:32:05;;;;;;;5.63;4.10;;;;;;;18.44;49.67;101223.44;4979999;28;123996;-68
2022/05/31 08:34:33;;;;;;;5.85;3.80;;;;;;;18.60;49.36;101222.31;4992690;28;123780;-69
2022/05/31 08:37:00;;;;;;;6.55;3.60;;;;;;;18.73;48.79;101217.75;4992571;28;114375;-68
2022/05/31 08:39:27;;;;;;;5.40;3.80;;;;;;;18.83;48.50;101213.44;4992855;28;114350;-69
2022/05/31 08:42:03;;;;;;;6.40;3.30;;;;;;;18.96;48.45;101207.19;4990854;28;124676;-69
2022/05/31 08:45:19;;;;;;;5.43;3.67;;;;;;;19.13;47.92;101203.22;4980930;28;123795;-69
2022/05/31 08:48:13;;;;;;;6.83;3.33;;;;;;;19.28;47.83;101201.22;4991552;28;114703;-70
2022/05/31 08:56:54;;;;;;;4.97;3.20;;;;;;;19.63;47.11;101196.66;4983288;28;124764;-71
2022/05/31 08:57:07;;;;;;;4.47;3.08;;;;;;;19.83;46.74;101207.72;4991389;28;123857;-69
2022/05/31 08:59:52;;;;;;;8.60;3.45;;;;;;;20.00;46.54;101207.25;4976378;28;113351;-69
2022/05/31 09:02:25;;;;;;;5.45;3.03;;;;;;;20.16;45.74;101208.72;4990499;28;113914;-70
2022/05/31 09:05:13;;;;;;;4.10;2.60;;;;;;;20.28;45.50;101213.09;4991894;28;123822;-70
2022/05/31 09:07:50;;;;;;;4.22;2.80;;;;;;;20.36;44.75;101205.31;4975757;28;123865;-70
2022/05/31 09:10:36;;;;;;;5.68;2.92;;;;;;;20.41;44.71;101203.06;4990462;28;113688;-69
2022/05/31 09:13:12;;;;;;;4.28;2.58;;;;;;;20.48;44.38;101208.81;4988838;28;114366;-69
2022/05/31 09:15:47;;;;;;;3.92;2.72;;;;;;;20.56;44.39;101210.88;4989977;28;124612;-69
2022/05/31 09:18:31;;;;;;;4.53;2.63;;;;;;;20.69;44.22;101200.84;4989531;28;123827;-68
2022/05/31 09:21:04;;;;;;;4.65;2.65;;;;;;;20.82;43.82;101200.72;4989866;28;114982;-68
2022/05/31 09:23:35;;;;;;;4.63;2.80;;;;;;;20.95;43.59;101200.53;4985263;28;115070;-68
2022/05/31 09:26:08;;;;;;;3.55;2.25;;;;;;;21.09;43.24;101202.91;4981101;28;124169;-69
2022/05/31 09:28:52;;;;;;;5.82;2.50;;;;;;;21.17;42.96;101200.47;4989038;28;124074;-69
2022/05/31 09:31:45;;;;;;;3.85;2.40;;;;;;;21.17;42.17;101195.06;4989642;28;114420;-68
2022/05/31 09:34:39;;;;;;;4.85;2.72;;;;;;;21.19;42.56;101198.47;4991192;28;114457;-71
2022/05/31 09:37:30;;;;;;;4.72;2.88;;;;;;;21.30;42.64;101199.41;4989497;28;124863;-69
2022/05/31 09:40:25;;;;;;;3.08;2.28;;;;;;;21.38;41.75;101203.16;4978750;28;124579;-70
2022/05/31 09:43:20;;;;;;;4.82;2.00;;;;;;;21.42;41.69;101209.16;4977929;28;114259;-69
2022/05/31 09:46:00;;;;;;;3.75;2.40;;;;;;;21.42;41.32;101203.75;4980145;28;114052;-69
2022/05/31 09:48:27;;;;;;;4.22;2.00;;;;;;;21.43;41.09;101199.22;4989146;28;123841;-70
2022/05/31 09:51:17;;;;;;;3.65;2.10;;;;;;;21.41;40.68;101196.66;4989357;28;124163;-69
2022/05/31 09:57:13;;;;;;;3.75;2.30;;;;;;;21.39;40.93;101204.00;4970136;28;114838;-68
2022/05/31 10:00:20;;;;;;;3.78;2.15;;;;;;;21.46;40.99;101194.47;4992048;28;124780;-68
2022/05/31 10:03:17;;;;;;;3.92;2.60;;;;;;;21.59;41.70;101196.97;4990123;28;124296;-68
2022/05/31 10:05:48;;;;;;;4.22;2.40;;;;;;;21.73;41.78;101190.38;4975907;28;113479;-68
2022/05/31 10:08:32;;;;;;;3.65;2.38;;;;;;;21.86;41.40;101185.59;4984411;28;114890;-66
2022/05/31 10:11:05;;;;;;;3.35;2.65;;;;;;;21.99;40.89;101189.94;4979592;28;124208;-67
2022/05/31 10:13:38;;;;;;;3.60;2.65;;;;;;;22.08;39.80;101191.81;4983228;28;123664;-68
2022/05/31 10:16:18;;;;;;;3.83;2.47;;;;;;;22.09;40.36;101185.41;4979101;28;114977;-66
2022/05/31 10:18:52;;;;;;;4.78;2.45;;;;;;;22.13;40.27;101197.66;4982175;28;114686;-67
2022/05/31 10:21:40;;;;;;;5.35;2.63;;;;;;;22.20;39.81;101182.63;4974279;28;123920;-67
2022/05/31 10:24:21;;;;;;;4.32;2.60;;;;;;;22.30;40.05;101186.25;4968680;28;123154;-67
2022/05/31 10:27:27;;;;;;;4.18;2.40;;;;;;;22.42;40.06;101175.34;4985632;28;114738;-67
2022/05/31 10:30:09;;;;;;;4.30;2.85;;;;;;;22.47;39.42;101173.06;4976134;28;113151;-68
2022/05/31 10:33:07;;;;;;;3.45;2.55;;;;;;;22.55;39.25;101184.06;4998388;28;123353;-68
2022/05/31 10:35:38;;;;;;;3.85;2.60;;;;;;;22.59;38.82;101188.19;4986058;28;123706;-68
2022/05/31 10:38:18;;;;;;;3.13;2.58;;;;;;;22.64;39.13;101191.31;4976919;28;114450;-67
2022/05/31 10:40:53;;;;;;;4.90;3.42;;;;;;;22.71;38.56;101187.03;4984867;28;113152;-68
2022/05/31 10:43:40;;;;;;;5.53;3.17;;;;;;;22.75;39.35;101176.81;4986853;28;125120;-68
2022/05/31 10:46:12;;;;;;;5.07;2.80;;;;;;;22.85;38.95;101174.13;4966836;28;123793;-67
2022/05/31 10:48:46;;;;;;;4.13;2.75;;;;;;;22.94;38.93;101182.25;4969467;28;114164;-67
2022/05/31 10:51:22;;;;;;;4.40;2.42;;;;;;;23.05;39.39;101175.88;4990338;28;114075;-68
2022/05/31 10:54:04;;;;;;;4.53;2.45;;;;;;;23.21;39.32;101171.75;4969940;28;124662;-68
2022/05/31 10:56:57;;;;;;;4.57;3.10;;;;;;;23.37;38.53;101166.59;4971715;28;125053;-67
2022/05/31 10:59:35;;;;;;;5.88;3.00;;;;;;;23.45;37.63;101168.56;4972816;28;113870;-67
2022/05/31 11:02:26;;;;;;;6.50;2.78;;;;;;;23.45;38.00;101164.03;4973755;28;113258;-69
2022/05/31 11:05:01;;;;;;;4.93;2.78;;;;;;;23.51;38.00;101163.47;4968959;28;124045;-68
2022/05/31 11:11:28;;;;;;;4.32;2.63;;;;;;;23.61;37.38;101157.19;4966789;28;124657;-67
2022/05/31 11:13:31;;;;;;;;;;;;;;;23.64;38.33;101151.44;4977489;28;114752;-68
2022/05/31 11:16:18;;;;;;;6.97;3.55;;;;;;;23.66;37.62;101149.47;4970289;28;123566;-67
2022/05/31 11:19:04;;;;;;;4.75;2.80;;;;;;;23.65;37.00;101147.75;4973281;28;125190;-68
2022/05/31 11:21:44;;;;;;;5.57;3.00;;;;;;;23.64;36.48;101151.44;4971867;28;114286;-68
2022/05/31 11:24:37;;;;;;;4.25;2.95;;;;;;;23.54;36.15;101156.03;4969790;28;113861;-67
2022/05/31 11:27:17;;;;;;;4.68;3.03;;;;;;;23.42;36.33;101153.50;4977320;28;123446;-68
2022/05/31 11:29:51;;;;;;;4.35;2.90;;;;;;;23.34;36.35;101156.09;4977967;28;123974;-68
2022/05/31 11:32:57;;;;;;;5.05;2.85;;;;;;;23.30;36.63;101154.66;4980600;28;115042;-68
2022/05/31 11:35:50;;;;;;;4.15;2.83;;;;;;;23.25;36.43;101146.16;4987085;28;113403;-68
2022/05/31 11:38:30;;;;;;;6.60;2.83;;;;;;;23.24;36.98;101149.84;4975308;28;124649;-68
2022/05/31 11:41:22;;;;;;;4.80;3.10;;;;;;;23.31;36.79;101150.97;4968069;28;124046;-68
2022/05/31 11:44:09;;;;;;;5.35;3.42;;;;;;;23.36;36.80;101154.09;4997437;28;114490;-68
2022/05/31 11:46:50;;;;;;;5.25;3.60;;;;;;;23.35;36.08;101152.38;4976015;28;113543;-68
2022/05/31 11:49:50;;;;;;;6.07;3.35;;;;;;;23.29;36.19;101152.97;4974393;28;124009;-68
2022/05/31 11:52:45;;;;;;;4.68;2.92;;;;;;;23.29;36.37;101152.97;4982322;28;126178;-68
2022/05/31 11:55:25;;;;;;;5.40;2.97;;;;;;;23.34;36.76;101156.09;4978314;28;113766;-68
2022/05/31 11:58:15;;;;;;;5.03;2.90;;;;;;;23.38;36.60;101157.50;4974265;28;113896;-68
2022/05/31 12:00:45;;;;;;;4.78;3.00;;;;;;;23.41;36.14;101157.19;4975275;28;124346;-68
2022/05/31 12:03:22;;;;;;;3.65;2.45;;;;;;;23.44;35.61;101162.31;4988743;28;124200;-68
2022/05/31 12:05:57;;;;;;;4.88;2.78;;;;;;;23.46;35.94;101149.50;4986209;28;115209;-68
2022/05/31 12:08:34;;;;;;;4.30;2.85;;;;;;;23.47;35.68;101151.22;4978967;28;113851;-68
2022/05/31 12:11:09;;;;;;;4.15;2.85;;;;;;;23.46;35.59;101152.22;4984361;28;123532;-68
2022/05/31 12:13:39;;;;;;;;;;;;;;;23.42;36.46;101158.06;4980699;28;123611;-68
2022/05/31 12:16:07;;;;;;;6.75;3.28;;;;;;;23.42;36.25;101153.50;4991421;28;114215;-68
2022/05/31 12:18:47;;;;;;;5.70;3.08;;;;;;;23.41;36.51;101151.78;4990759;28;112308;-68
2022/05/31 12:21:36;;;;;;;4.47;3.22;;;;;;;23.41;36.45;101151.78;4977872;28;124466;-68
2022/05/31 12:24:25;;;;;;;5.32;2.90;;;;;;;23.40;36.11;101160.91;4990102;28;124576;-68
2022/05/31 12:27:00;;;;;;;7.28;3.50;;;;;;;23.38;36.21;101157.50;4986927;28;113955;-68
2022/05/31 12:29:51;;;;;;;7.60;3.35;;;;;;;23.35;36.32;101156.94;4988392;28;113730;-68